Bruno, Nebraska
Current Conditions -  °F | °C
As of 6:35 AM on Monday 24 Nov 2014 (Local Time) from KAHQ Reporting Station
Overcast Overcast  
Wind Chill: 19°   Ceiling: 2400
Heat Index: 30°   Visibility: 10mi
Dew Point: 20°   Wind: 15mph
Humidity: 66%   Direction: 330°NNW
Pressure: 29.64"   Gusts: 23mph
Location:  41.28°N, 96.96°W
Report Text: KAHQ 241235Z AUTO 33013G20KT 10SM OVC024 M01/M07 A2964 RMK AO2 T10111067
Loading
Personal Weather Stations






























Interactive Weather Map New forecast layout! Learn more

10-Day Weather Forecast

Advertisements
Track Severe Weather on mobile